aviador You're here:

KMQJ Decoded Metar

in
Report Time2017-08-22 03:09:00
UTC Time2017-08-22 03:25:15
Flight Rules vfr VFR
Wind180° at 04 kt
W.Decomp.*RWY 16: 3.8 kt HW 1.4 kt RCW
RWY 25: 1.4 kt HW 3.8 kt LCW
W.Rank180° ranks 3
Current wind is below 180° avg. (6.7)
Visibility9999 m
Phenomena:N/A
Clouds:N/A
Expected CloudBase > 800 ft AGL from Temp-Dew spread
CeilingNone
Temp23°C
Dew Point21°C (89% RH)
QNH1018 hPa
Raw Report
METAR KMQJ 220309Z AUTO 18004KT 10SM CLR 23/21 A3006 RMK AO1=

Extra information for KMQJ:More info

Social comments